sensor_id;sensor_type;location;lat;lon;timestamp;P1;durP1;ratioP1;P2;durP2;ratioP2
67776;SDS011;54576;52.020;5.536;2023-03-09T00:01:34;24.48;;;15.32;;
67776;SDS011;54576;52.020;5.536;2023-03-09T00:03:59;18.80;;;12.30;;
67776;SDS011;54576;52.020;5.536;2023-03-09T00:06:26;22.80;;;14.45;;
67776;SDS011;54576;52.020;5.536;2023-03-09T00:08:53;23.23;;;13.70;;
67776;SDS011;54576;52.020;5.536;2023-03-09T00:11:19;23.50;;;13.70;;
67776;SDS011;54576;52.020;5.536;2023-03-09T00:13:46;23.55;;;14.70;;
67776;SDS011;54576;52.020;5.536;2023-03-09T00:16:16;23.55;;;14.82;;
67776;SDS011;54576;52.020;5.536;2023-03-09T00:18:47;23.00;;;13.38;;
67776;SDS011;54576;52.020;5.536;2023-03-09T00:21:16;25.45;;;15.40;;
67776;SDS011;54576;52.020;5.536;2023-03-09T00:24:12;23.38;;;14.82;;
67776;SDS011;54576;52.020;5.536;2023-03-09T00:26:42;23.83;;;14.02;;
67776;SDS011;54576;52.020;5.536;2023-03-09T00:29:12;22.50;;;13.95;;
67776;SDS011;54576;52.020;5.536;2023-03-09T00:31:38;19.20;;;13.20;;
67776;SDS011;54576;52.020;5.536;2023-03-09T00:34:05;20.77;;;11.95;;
67776;SDS011;54576;52.020;5.536;2023-03-09T00:36:31;21.42;;;13.52;;
67776;SDS011;54576;52.020;5.536;2023-03-09T00:38:58;20.10;;;13.57;;
67776;SDS011;54576;52.020;5.536;2023-03-09T00:41:24;16.88;;;10.52;;
67776;SDS011;54576;52.020;5.536;2023-03-09T00:43:55;20.25;;;13.73;;
67776;SDS011;54576;52.020;5.536;2023-03-09T00:46:22;20.42;;;13.25;;
67776;SDS011;54576;52.020;5.536;2023-03-09T00:48:47;18.50;;;10.95;;
67776;SDS011;54576;52.020;5.536;2023-03-09T00:51:14;24.73;;;14.35;;
67776;SDS011;54576;52.020;5.536;2023-03-09T00:53:41;20.02;;;14.02;;
67776;SDS011;54576;52.020;5.536;2023-03-09T00:56:08;23.13;;;13.25;;
67776;SDS011;54576;52.020;5.536;2023-03-09T00:58:37;19.42;;;12.55;;
67776;SDS011;54576;52.020;5.536;2023-03-09T01:01:07;18.98;;;12.90;;
67776;SDS011;54576;52.020;5.536;2023-03-09T01:03:34;19.77;;;12.93;;
67776;SDS011;54576;52.020;5.536;2023-03-09T01:06:00;21.50;;;14.20;;
67776;SDS011;54576;52.020;5.536;2023-03-09T01:08:26;20.80;;;11.93;;
67776;SDS011;54576;52.020;5.536;2023-03-09T01:10:52;20.63;;;13.07;;
67776;SDS011;54576;52.020;5.536;2023-03-09T01:13:21;27.33;;;14.20;;
67776;SDS011;54576;52.020;5.536;2023-03-09T01:15:46;19.92;;;13.30;;
67776;SDS011;54576;52.020;5.536;2023-03-09T01:18:12;19.77;;;13.40;;
67776;SDS011;54576;52.020;5.536;2023-03-09T01:20:38;22.13;;;13.05;;
67776;SDS011;54576;52.020;5.536;2023-03-09T01:23:03;17.88;;;11.98;;
67776;SDS011;54576;52.020;5.536;2023-03-09T01:25:29;18.95;;;11.02;;
67776;SDS011;54576;52.020;5.536;2023-03-09T01:27:55;23.02;;;14.63;;
67776;SDS011;54576;52.020;5.536;2023-03-09T01:30:20;20.58;;;12.55;;
67776;SDS011;54576;52.020;5.536;2023-03-09T01:32:47;23.27;;;15.00;;
67776;SDS011;54576;52.020;5.536;2023-03-09T01:35:13;22.77;;;14.15;;
67776;SDS011;54576;52.020;5.536;2023-03-09T01:37:39;18.38;;;11.82;;
67776;SDS011;54576;52.020;5.536;2023-03-09T01:40:04;25.25;;;13.65;;
67776;SDS011;54576;52.020;5.536;2023-03-09T01:42:33;20.58;;;13.52;;
67776;SDS011;54576;52.020;5.536;2023-03-09T01:46:23;21.13;;;13.70;;
67776;SDS011;54576;52.020;5.536;2023-03-09T01:47:57;23.73;;;14.10;;
67776;SDS011;54576;52.020;5.536;2023-03-09T01:50:41;19.58;;;13.30;;
67776;SDS011;54576;52.020;5.536;2023-03-09T01:53:10;20.02;;;11.80;;
67776;SDS011;54576;52.020;5.536;2023-03-09T01:55:48;20.77;;;12.80;;
67776;SDS011;54576;52.020;5.536;2023-03-09T01:58:22;23.25;;;14.65;;
67776;SDS011;54576;52.020;5.536;2023-03-09T02:00:53;22.58;;;13.90;;
67776;SDS011;54576;52.020;5.536;2023-03-09T02:03:30;24.88;;;14.80;;
67776;SDS011;54576;52.020;5.536;2023-03-09T02:06:02;22.63;;;13.77;;
67776;SDS011;54576;52.020;5.536;2023-03-09T02:10:57;23.75;;;14.18;;
67776;SDS011;54576;52.020;5.536;2023-03-09T02:13:25;21.00;;;13.80;;
67776;SDS011;54576;52.020;5.536;2023-03-09T02:16:02;23.00;;;14.05;;
67776;SDS011;54576;52.020;5.536;2023-03-09T02:18:28;22.45;;;14.45;;
67776;SDS011;54576;52.020;5.536;2023-03-09T02:21:03;22.27;;;14.90;;
67776;SDS011;54576;52.020;5.536;2023-03-09T02:23:53;22.05;;;13.10;;
67776;SDS011;54576;52.020;5.536;2023-03-09T02:27:11;25.75;;;14.85;;
67776;SDS011;54576;52.020;5.536;2023-03-09T02:29:35;24.48;;;14.85;;
67776;SDS011;54576;52.020;5.536;2023-03-09T02:32:00;20.92;;;13.85;;
67776;SDS011;54576;52.020;5.536;2023-03-09T02:34:26;22.17;;;13.98;;
67776;SDS011;54576;52.020;5.536;2023-03-09T02:36:51;22.30;;;13.68;;
67776;SDS011;54576;52.020;5.536;2023-03-09T02:41:55;24.17;;;14.60;;
67776;SDS011;54576;52.020;5.536;2023-03-09T02:44:24;25.70;;;13.88;;
67776;SDS011;54576;52.020;5.536;2023-03-09T02:46:50;21.70;;;14.40;;
67776;SDS011;54576;52.020;5.536;2023-03-09T02:49:16;24.95;;;15.98;;
67776;SDS011;54576;52.020;5.536;2023-03-09T02:51:42;27.08;;;16.23;;
67776;SDS011;54576;52.020;5.536;2023-03-09T02:54:08;28.20;;;15.35;;
67776;SDS011;54576;52.020;5.536;2023-03-09T02:56:34;24.73;;;14.93;;
67776;SDS011;54576;52.020;5.536;2023-03-09T02:58:59;22.83;;;15.02;;
67776;SDS011;54576;52.020;5.536;2023-03-09T03:01:27;24.13;;;14.95;;
67776;SDS011;54576;52.020;5.536;2023-03-09T03:03:53;24.60;;;15.93;;
67776;SDS011;54576;52.020;5.536;2023-03-09T03:06:19;24.85;;;15.10;;
67776;SDS011;54576;52.020;5.536;2023-03-09T03:08:44;30.23;;;15.20;;
67776;SDS011;54576;52.020;5.536;2023-03-09T03:11:10;15.50;;;9.88;;
67776;SDS011;54576;52.020;5.536;2023-03-09T03:13:36;23.20;;;14.73;;
67776;SDS011;54576;52.020;5.536;2023-03-09T03:16:01;24.25;;;14.88;;
67776;SDS011;54576;52.020;5.536;2023-03-09T03:18:28;24.48;;;15.13;;
67776;SDS011;54576;52.020;5.536;2023-03-09T03:20:54;23.80;;;13.68;;
67776;SDS011;54576;52.020;5.536;2023-03-09T03:23:20;26.67;;;14.07;;
67776;SDS011;54576;52.020;5.536;2023-03-09T03:25:46;21.13;;;14.15;;
67776;SDS011;54576;52.020;5.536;2023-03-09T03:28:12;21.90;;;14.60;;
67776;SDS011;54576;52.020;5.536;2023-03-09T03:30:37;23.73;;;14.80;;
67776;SDS011;54576;52.020;5.536;2023-03-09T03:33:03;23.77;;;14.40;;
67776;SDS011;54576;52.020;5.536;2023-03-09T03:35:28;24.20;;;14.98;;
67776;SDS011;54576;52.020;5.536;2023-03-09T03:37:54;28.75;;;14.32;;
67776;SDS011;54576;52.020;5.536;2023-03-09T03:40:20;23.33;;;14.27;;
67776;SDS011;54576;52.020;5.536;2023-03-09T03:42:45;26.88;;;15.85;;
67776;SDS011;54576;52.020;5.536;2023-03-09T03:45:11;23.52;;;12.38;;
67776;SDS011;54576;52.020;5.536;2023-03-09T03:47:37;25.77;;;15.65;;
67776;SDS011;54576;52.020;5.536;2023-03-09T03:50:04;31.00;;;15.68;;
67776;SDS011;54576;52.020;5.536;2023-03-09T03:52:30;25.33;;;15.60;;
67776;SDS011;54576;52.020;5.536;2023-03-09T03:54:56;22.02;;;14.32;;
67776;SDS011;54576;52.020;5.536;2023-03-09T03:57:21;20.67;;;13.98;;
67776;SDS011;54576;52.020;5.536;2023-03-09T03:59:48;25.83;;;15.73;;
67776;SDS011;54576;52.020;5.536;2023-03-09T04:02:14;23.45;;;15.30;;
67776;SDS011;54576;52.020;5.536;2023-03-09T04:04:39;25.73;;;15.32;;
67776;SDS011;54576;52.020;5.536;2023-03-09T04:07:05;26.20;;;15.57;;
67776;SDS011;54576;52.020;5.536;2023-03-09T04:09:32;26.23;;;14.52;;
67776;SDS011;54576;52.020;5.536;2023-03-09T04:11:58;29.75;;;15.65;;
67776;SDS011;54576;52.020;5.536;2023-03-09T04:14:23;24.95;;;15.60;;
67776;SDS011;54576;52.020;5.536;2023-03-09T04:16:49;25.95;;;14.32;;
67776;SDS011;54576;52.020;5.536;2023-03-09T04:19:14;25.30;;;14.18;;
67776;SDS011;54576;52.020;5.536;2023-03-09T04:21:40;25.42;;;15.48;;
67776;SDS011;54576;52.020;5.536;2023-03-09T04:24:06;25.00;;;14.80;;
67776;SDS011;54576;52.020;5.536;2023-03-09T04:26:31;23.70;;;15.20;;
67776;SDS011;54576;52.020;5.536;2023-03-09T04:28:58;23.40;;;14.38;;
67776;SDS011;54576;52.020;5.536;2023-03-09T04:31:23;27.58;;;15.80;;
67776;SDS011;54576;52.020;5.536;2023-03-09T04:33:49;22.10;;;14.48;;
67776;SDS011;54576;52.020;5.536;2023-03-09T04:36:14;24.15;;;15.15;;
67776;SDS011;54576;52.020;5.536;2023-03-09T04:38:40;26.63;;;15.90;;
67776;SDS011;54576;52.020;5.536;2023-03-09T04:41:05;26.95;;;15.70;;
67776;SDS011;54576;52.020;5.536;2023-03-09T04:43:31;25.40;;;15.43;;
67776;SDS011;54576;52.020;5.536;2023-03-09T04:45:57;26.75;;;14.77;;
67776;SDS011;54576;52.020;5.536;2023-03-09T04:48:22;24.25;;;15.32;;
67776;SDS011;54576;52.020;5.536;2023-03-09T04:50:48;25.20;;;14.02;;
67776;SDS011;54576;52.020;5.536;2023-03-09T04:53:13;20.13;;;12.82;;
67776;SDS011;54576;52.020;5.536;2023-03-09T04:55:39;25.15;;;14.82;;
67776;SDS011;54576;52.020;5.536;2023-03-09T04:58:05;25.70;;;15.98;;
67776;SDS011;54576;52.020;5.536;2023-03-09T05:00:31;24.77;;;15.40;;
67776;SDS011;54576;52.020;5.536;2023-03-09T05:02:57;28.88;;;13.93;;
67776;SDS011;54576;52.020;5.536;2023-03-09T05:05:23;23.40;;;14.00;;
67776;SDS011;54576;52.020;5.536;2023-03-09T05:07:49;25.30;;;15.25;;
67776;SDS011;54576;52.020;5.536;2023-03-09T05:10:15;26.42;;;16.42;;
67776;SDS011;54576;52.020;5.536;2023-03-09T05:12:40;24.75;;;16.38;;
67776;SDS011;54576;52.020;5.536;2023-03-09T05:15:07;25.02;;;15.55;;
67776;SDS011;54576;52.020;5.536;2023-03-09T05:17:33;26.98;;;15.93;;
67776;SDS011;54576;52.020;5.536;2023-03-09T05:19:59;29.00;;;16.50;;
67776;SDS011;54576;52.020;5.536;2023-03-09T05:22:25;27.60;;;15.77;;
67776;SDS011;54576;52.020;5.536;2023-03-09T05:24:50;22.98;;;14.13;;
67776;SDS011;54576;52.020;5.536;2023-03-09T05:27:16;23.90;;;14.80;;
67776;SDS011;54576;52.020;5.536;2023-03-09T05:29:41;26.80;;;15.65;;
67776;SDS011;54576;52.020;5.536;2023-03-09T05:32:07;25.02;;;15.10;;
67776;SDS011;54576;52.020;5.536;2023-03-09T05:34:33;25.65;;;15.40;;
67776;SDS011;54576;52.020;5.536;2023-03-09T05:36:59;24.20;;;15.40;;
67776;SDS011;54576;52.020;5.536;2023-03-09T05:39:25;26.33;;;14.57;;
67776;SDS011;54576;52.020;5.536;2023-03-09T05:41:51;24.77;;;16.67;;
67776;SDS011;54576;52.020;5.536;2023-03-09T05:44:17;24.67;;;14.93;;
67776;SDS011;54576;52.020;5.536;2023-03-09T05:46:42;25.23;;;15.63;;
67776;SDS011;54576;52.020;5.536;2023-03-09T05:49:09;29.33;;;15.98;;
67776;SDS011;54576;52.020;5.536;2023-03-09T05:51:35;26.52;;;15.23;;
67776;SDS011;54576;52.020;5.536;2023-03-09T05:54:01;32.88;;;17.15;;
67776;SDS011;54576;52.020;5.536;2023-03-09T05:56:26;29.13;;;15.95;;
67776;SDS011;54576;52.020;5.536;2023-03-09T05:58:52;26.73;;;15.60;;
67776;SDS011;54576;52.020;5.536;2023-03-09T06:01:22;27.27;;;14.68;;
67776;SDS011;54576;52.020;5.536;2023-03-09T06:03:52;26.35;;;16.33;;
67776;SDS011;54576;52.020;5.536;2023-03-09T06:06:17;24.90;;;14.57;;
67776;SDS011;54576;52.020;5.536;2023-03-09T06:08:43;29.48;;;16.48;;
67776;SDS011;54576;52.020;5.536;2023-03-09T06:11:09;25.13;;;14.48;;
67776;SDS011;54576;52.020;5.536;2023-03-09T06:13:36;25.52;;;16.15;;
67776;SDS011;54576;52.020;5.536;2023-03-09T06:16:11;24.75;;;15.57;;
67776;SDS011;54576;52.020;5.536;2023-03-09T06:18:39;23.58;;;15.93;;
67776;SDS011;54576;52.020;5.536;2023-03-09T06:21:05;26.23;;;15.85;;
67776;SDS011;54576;52.020;5.536;2023-03-09T06:23:32;29.90;;;15.80;;
67776;SDS011;54576;52.020;5.536;2023-03-09T06:26:01;27.00;;;16.13;;
67776;SDS011;54576;52.020;5.536;2023-03-09T06:28:28;26.35;;;14.82;;
67776;SDS011;54576;52.020;5.536;2023-03-09T06:30:53;25.73;;;16.13;;
67776;SDS011;54576;52.020;5.536;2023-03-09T06:33:19;24.85;;;15.25;;
67776;SDS011;54576;52.020;5.536;2023-03-09T06:35:44;28.30;;;16.52;;
67776;SDS011;54576;52.020;5.536;2023-03-09T06:38:10;25.08;;;16.23;;
67776;SDS011;54576;52.020;5.536;2023-03-09T06:40:35;25.10;;;15.52;;
67776;SDS011;54576;52.020;5.536;2023-03-09T06:43:01;24.25;;;15.35;;
67776;SDS011;54576;52.020;5.536;2023-03-09T06:45:26;27.27;;;15.98;;
67776;SDS011;54576;52.020;5.536;2023-03-09T06:47:53;25.52;;;15.88;;
67776;SDS011;54576;52.020;5.536;2023-03-09T06:50:19;25.73;;;15.63;;
67776;SDS011;54576;52.020;5.536;2023-03-09T06:52:45;22.33;;;12.65;;
67776;SDS011;54576;52.020;5.536;2023-03-09T06:55:11;27.05;;;16.25;;
67776;SDS011;54576;52.020;5.536;2023-03-09T06:57:36;26.20;;;15.60;;
67776;SDS011;54576;52.020;5.536;2023-03-09T07:00:02;29.33;;;15.77;;
67776;SDS011;54576;52.020;5.536;2023-03-09T07:02:29;26.63;;;15.57;;
67776;SDS011;54576;52.020;5.536;2023-03-09T07:04:56;24.90;;;14.68;;
67776;SDS011;54576;52.020;5.536;2023-03-09T07:07:21;24.50;;;15.50;;
67776;SDS011;54576;52.020;5.536;2023-03-09T07:09:47;26.65;;;16.15;;
67776;SDS011;54576;52.020;5.536;2023-03-09T07:12:13;24.48;;;15.73;;
67776;SDS011;54576;52.020;5.536;2023-03-09T07:14:39;25.73;;;15.88;;
67776;SDS011;54576;52.020;5.536;2023-03-09T07:17:04;24.98;;;15.57;;
67776;SDS011;54576;52.020;5.536;2023-03-09T07:19:30;24.73;;;15.82;;
67776;SDS011;54576;52.020;5.536;2023-03-09T07:21:55;25.38;;;14.98;;
67776;SDS011;54576;52.020;5.536;2023-03-09T07:24:21;27.63;;;15.77;;
67776;SDS011;54576;52.020;5.536;2023-03-09T07:26:47;26.50;;;16.08;;
67776;SDS011;54576;52.020;5.536;2023-03-09T07:29:13;26.15;;;15.43;;
67776;SDS011;54576;52.020;5.536;2023-03-09T07:31:39;31.85;;;14.40;;
67776;SDS011;54576;52.020;5.536;2023-03-09T07:34:05;26.02;;;15.95;;
67776;SDS011;54576;52.020;5.536;2023-03-09T07:36:31;26.13;;;15.38;;
67776;SDS011;54576;52.020;5.536;2023-03-09T07:38:56;28.08;;;17.48;;
67776;SDS011;54576;52.020;5.536;2023-03-09T07:41:22;26.60;;;17.17;;
67776;SDS011;54576;52.020;5.536;2023-03-09T07:43:47;29.60;;;17.23;;
67776;SDS011;54576;52.020;5.536;2023-03-09T07:46:14;24.98;;;16.02;;
67776;SDS011;54576;52.020;5.536;2023-03-09T07:48:40;28.13;;;17.35;;
67776;SDS011;54576;52.020;5.536;2023-03-09T07:51:08;26.52;;;15.68;;
67776;SDS011;54576;52.020;5.536;2023-03-09T07:53:35;30.13;;;17.17;;
67776;SDS011;54576;52.020;5.536;2023-03-09T07:56:02;28.85;;;17.88;;
67776;SDS011;54576;52.020;5.536;2023-03-09T07:58:29;26.90;;;16.52;;
67776;SDS011;54576;52.020;5.536;2023-03-09T08:00:55;28.73;;;17.85;;
67776;SDS011;54576;52.020;5.536;2023-03-09T08:03:21;29.30;;;17.63;;
67776;SDS011;54576;52.020;5.536;2023-03-09T08:05:47;28.08;;;17.05;;
67776;SDS011;54576;52.020;5.536;2023-03-09T08:08:14;27.92;;;18.23;;
67776;SDS011;54576;52.020;5.536;2023-03-09T08:10:46;28.73;;;18.13;;
67776;SDS011;54576;52.020;5.536;2023-03-09T08:13:12;27.25;;;16.80;;
67776;SDS011;54576;52.020;5.536;2023-03-09T08:15:38;29.48;;;18.00;;
67776;SDS011;54576;52.020;5.536;2023-03-09T08:18:04;31.85;;;17.98;;
67776;SDS011;54576;52.020;5.536;2023-03-09T08:20:31;31.58;;;16.75;;
67776;SDS011;54576;52.020;5.536;2023-03-09T08:22:57;33.88;;;19.00;;
67776;SDS011;54576;52.020;5.536;2023-03-09T08:25:23;31.98;;;19.40;;
67776;SDS011;54576;52.020;5.536;2023-03-09T08:27:50;30.88;;;18.38;;
67776;SDS011;54576;52.020;5.536;2023-03-09T08:30:16;31.20;;;17.52;;
67776;SDS011;54576;52.020;5.536;2023-03-09T08:32:45;31.60;;;17.70;;
67776;SDS011;54576;52.020;5.536;2023-03-09T08:35:13;31.42;;;17.13;;
67776;SDS011;54576;52.020;5.536;2023-03-09T08:37:39;31.42;;;17.83;;
67776;SDS011;54576;52.020;5.536;2023-03-09T08:40:05;31.10;;;18.33;;
67776;SDS011;54576;52.020;5.536;2023-03-09T08:42:32;32.53;;;17.48;;
67776;SDS011;54576;52.020;5.536;2023-03-09T08:44:58;31.27;;;18.20;;
67776;SDS011;54576;52.020;5.536;2023-03-09T08:47:24;31.80;;;18.20;;
67776;SDS011;54576;52.020;5.536;2023-03-09T08:49:50;28.65;;;17.30;;
67776;SDS011;54576;52.020;5.536;2023-03-09T08:52:16;33.60;;;19.00;;
67776;SDS011;54576;52.020;5.536;2023-03-09T08:54:41;33.30;;;17.90;;
67776;SDS011;54576;52.020;5.536;2023-03-09T08:57:07;32.85;;;17.17;;
67776;SDS011;54576;52.020;5.536;2023-03-09T08:59:33;28.58;;;17.25;;
67776;SDS011;54576;52.020;5.536;2023-03-09T09:01:59;30.80;;;16.95;;
67776;SDS011;54576;52.020;5.536;2023-03-09T09:04:25;31.98;;;18.60;;
67776;SDS011;54576;52.020;5.536;2023-03-09T09:06:51;31.77;;;18.58;;
67776;SDS011;54576;52.020;5.536;2023-03-09T09:09:16;31.80;;;18.55;;
67776;SDS011;54576;52.020;5.536;2023-03-09T09:11:42;29.70;;;18.38;;
67776;SDS011;54576;52.020;5.536;2023-03-09T09:14:07;30.88;;;17.10;;
67776;SDS011;54576;52.020;5.536;2023-03-09T09:16:33;32.60;;;18.40;;
67776;SDS011;54576;52.020;5.536;2023-03-09T09:18:58;32.97;;;17.85;;
67776;SDS011;54576;52.020;5.536;2023-03-09T09:21:24;30.75;;;17.20;;
67776;SDS011;54576;52.020;5.536;2023-03-09T09:23:53;38.23;;;19.33;;
67776;SDS011;54576;52.020;5.536;2023-03-09T09:26:19;30.58;;;17.67;;
67776;SDS011;54576;52.020;5.536;2023-03-09T09:28:45;32.92;;;18.60;;
67776;SDS011;54576;52.020;5.536;2023-03-09T09:31:12;32.35;;;18.42;;
67776;SDS011;54576;52.020;5.536;2023-03-09T09:33:43;37.10;;;19.98;;
67776;SDS011;54576;52.020;5.536;2023-03-09T09:36:13;32.42;;;19.15;;
67776;SDS011;54576;52.020;5.536;2023-03-09T09:38:40;34.47;;;18.75;;
67776;SDS011;54576;52.020;5.536;2023-03-09T09:41:11;35.55;;;19.48;;
67776;SDS011;54576;52.020;5.536;2023-03-09T09:43:48;31.92;;;18.38;;
67776;SDS011;54576;52.020;5.536;2023-03-09T09:46:17;35.58;;;18.52;;
67776;SDS011;54576;52.020;5.536;2023-03-09T09:48:45;35.05;;;19.02;;
67776;SDS011;54576;52.020;5.536;2023-03-09T09:51:26;32.55;;;17.73;;
67776;SDS011;54576;52.020;5.536;2023-03-09T09:53:59;36.15;;;18.67;;
67776;SDS011;54576;52.020;5.536;2023-03-09T09:56:49;40.53;;;19.33;;
67776;SDS011;54576;52.020;5.536;2023-03-09T10:01:59;33.80;;;17.65;;
67776;SDS011;54576;52.020;5.536;2023-03-09T10:04:43;35.10;;;19.17;;
67776;SDS011;54576;52.020;5.536;2023-03-09T10:07:13;33.65;;;17.67;;
67776;SDS011;54576;52.020;5.536;2023-03-09T10:09:42;36.22;;;18.52;;
67776;SDS011;54576;52.020;5.536;2023-03-09T10:12:12;33.67;;;18.33;;
67776;SDS011;54576;52.020;5.536;2023-03-09T10:14:44;32.97;;;18.23;;
67776;SDS011;54576;52.020;5.536;2023-03-09T10:20:30;33.25;;;17.80;;
67776;SDS011;54576;52.020;5.536;2023-03-09T10:23:28;32.83;;;17.65;;
67776;SDS011;54576;52.020;5.536;2023-03-09T10:25:57;32.42;;;16.98;;
67776;SDS011;54576;52.020;5.536;2023-03-09T10:28:27;36.45;;;18.10;;
67776;SDS011;54576;52.020;5.536;2023-03-09T10:31:02;31.95;;;17.92;;
67776;SDS011;54576;52.020;5.536;2023-03-09T10:36:21;42.53;;;21.33;;
67776;SDS011;54576;52.020;5.536;2023-03-09T10:38:51;37.17;;;18.73;;
67776;SDS011;54576;52.020;5.536;2023-03-09T10:41:20;30.63;;;17.85;;
67776;SDS011;54576;52.020;5.536;2023-03-09T10:43:46;30.08;;;18.05;;
67776;SDS011;54576;52.020;5.536;2023-03-09T10:48:39;45.33;;;22.92;;
67776;SDS011;54576;52.020;5.536;2023-03-09T10:51:06;30.83;;;17.55;;
67776;SDS011;54576;52.020;5.536;2023-03-09T10:53:46;42.00;;;23.23;;
67776;SDS011;54576;52.020;5.536;2023-03-09T10:56:16;33.10;;;17.92;;
67776;SDS011;54576;52.020;5.536;2023-03-09T10:58:46;29.60;;;16.48;;
67776;SDS011;54576;52.020;5.536;2023-03-09T11:01:35;30.07;;;16.90;;
67776;SDS011;54576;52.020;5.536;2023-03-09T11:06:53;27.08;;;16.52;;
67776;SDS011;54576;52.020;5.536;2023-03-09T11:17:27;31.73;;;17.90;;
67776;SDS011;54576;52.020;5.536;2023-03-09T11:28:00;29.03;;;16.17;;
67776;SDS011;54576;52.020;5.536;2023-03-09T11:30:39;30.70;;;17.23;;
67776;SDS011;54576;52.020;5.536;2023-03-09T11:33:08;33.03;;;17.40;;
67776;SDS011;54576;52.020;5.536;2023-03-09T11:35:36;28.85;;;16.40;;
67776;SDS011;54576;52.020;5.536;2023-03-09T11:38:02;29.05;;;16.90;;
67776;SDS011;54576;52.020;5.536;2023-03-09T11:40:32;34.47;;;17.10;;
67776;SDS011;54576;52.020;5.536;2023-03-09T11:45:49;30.38;;;17.48;;
67776;SDS011;54576;52.020;5.536;2023-03-09T11:48:23;28.13;;;17.70;;
67776;SDS011;54576;52.020;5.536;2023-03-09T11:51:03;35.67;;;18.90;;
67776;SDS011;54576;52.020;5.536;2023-03-09T11:58:37;33.67;;;17.35;;
67776;SDS011;54576;52.020;5.536;2023-03-09T12:01:11;32.83;;;18.45;;
67776;SDS011;54576;52.020;5.536;2023-03-09T12:03:55;32.00;;;17.33;;
67776;SDS011;54576;52.020;5.536;2023-03-09T12:06:29;29.60;;;17.80;;
67776;SDS011;54576;52.020;5.536;2023-03-09T12:09:02;29.73;;;17.48;;
67776;SDS011;54576;52.020;5.536;2023-03-09T12:14:03;31.77;;;18.30;;
67776;SDS011;54576;52.020;5.536;2023-03-09T12:16:50;31.20;;;17.98;;
67776;SDS011;54576;52.020;5.536;2023-03-09T12:19:20;38.65;;;19.50;;
67776;SDS011;54576;52.020;5.536;2023-03-09T12:21:49;36.72;;;18.60;;
67776;SDS011;54576;52.020;5.536;2023-03-09T12:24:35;30.63;;;17.45;;
67776;SDS011;54576;52.020;5.536;2023-03-09T12:27:16;33.65;;;18.88;;
67776;SDS011;54576;52.020;5.536;2023-03-09T12:29:47;31.30;;;17.85;;
67776;SDS011;54576;52.020;5.536;2023-03-09T12:34:55;38.58;;;19.27;;
67776;SDS011;54576;52.020;5.536;2023-03-09T12:42:41;34.85;;;19.02;;
67776;SDS011;54576;52.020;5.536;2023-03-09T12:47:37;36.67;;;18.70;;
67776;SDS011;54576;52.020;5.536;2023-03-09T12:55:56;29.80;;;18.40;;
67776;SDS011;54576;52.020;5.536;2023-03-09T13:00:51;30.83;;;17.73;;
67776;SDS011;54576;52.020;5.536;2023-03-09T13:03:30;59.00;;;38.15;;
67776;SDS011;54576;52.020;5.536;2023-03-09T13:11:42;33.50;;;16.52;;
67776;SDS011;54576;52.020;5.536;2023-03-09T13:14:15;34.38;;;18.20;;
67776;SDS011;54576;52.020;5.536;2023-03-09T13:16:56;29.45;;;17.92;;
67776;SDS011;54576;52.020;5.536;2023-03-09T13:27:20;33.25;;;17.02;;
67776;SDS011;54576;52.020;5.536;2023-03-09T13:35:29;31.48;;;18.10;;
67776;SDS011;54576;52.020;5.536;2023-03-09T13:38:24;30.08;;;16.75;;
67776;SDS011;54576;52.020;5.536;2023-03-09T13:40:54;27.48;;;15.85;;
67776;SDS011;54576;52.020;5.536;2023-03-09T13:43:32;27.35;;;17.23;;
67776;SDS011;54576;52.020;5.536;2023-03-09T13:48:32;30.13;;;17.00;;
67776;SDS011;54576;52.020;5.536;2023-03-09T13:53:27;29.60;;;16.33;;
67776;SDS011;54576;52.020;5.536;2023-03-09T13:55:59;34.72;;;18.65;;
67776;SDS011;54576;52.020;5.536;2023-03-09T13:58:30;28.73;;;15.90;;
67776;SDS011;54576;52.020;5.536;2023-03-09T14:01:04;26.08;;;15.98;;
67776;SDS011;54576;52.020;5.536;2023-03-09T14:03:31;26.48;;;15.55;;
67776;SDS011;54576;52.020;5.536;2023-03-09T14:06:02;30.27;;;16.17;;
67776;SDS011;54576;52.020;5.536;2023-03-09T14:08:33;27.23;;;15.63;;
67776;SDS011;54576;52.020;5.536;2023-03-09T14:11:06;31.85;;;16.88;;
67776;SDS011;54576;52.020;5.536;2023-03-09T14:13:37;35.00;;;16.00;;
67776;SDS011;54576;52.020;5.536;2023-03-09T14:16:13;30.40;;;17.00;;
67776;SDS011;54576;52.020;5.536;2023-03-09T14:18:51;31.38;;;17.17;;
67776;SDS011;54576;52.020;5.536;2023-03-09T14:26:42;26.30;;;15.35;;
67776;SDS011;54576;52.020;5.536;2023-03-09T14:34:47;30.90;;;17.67;;
67776;SDS011;54576;52.020;5.536;2023-03-09T14:37:16;28.55;;;15.70;;
67776;SDS011;54576;52.020;5.536;2023-03-09T14:39:43;29.42;;;16.08;;
67776;SDS011;54576;52.020;5.536;2023-03-09T14:47:31;32.08;;;16.45;;
67776;SDS011;54576;52.020;5.536;2023-03-09T14:49:57;31.25;;;16.52;;
67776;SDS011;54576;52.020;5.536;2023-03-09T14:52:22;31.33;;;15.40;;
67776;SDS011;54576;52.020;5.536;2023-03-09T14:54:49;32.08;;;15.43;;
67776;SDS011;54576;52.020;5.536;2023-03-09T14:57:16;29.85;;;14.52;;
67776;SDS011;54576;52.020;5.536;2023-03-09T14:59:42;27.33;;;14.82;;
67776;SDS011;54576;52.020;5.536;2023-03-09T15:02:10;24.13;;;13.27;;
67776;SDS011;54576;52.020;5.536;2023-03-09T15:04:41;22.42;;;14.02;;
67776;SDS011;54576;52.020;5.536;2023-03-09T15:07:10;22.13;;;13.00;;
67776;SDS011;54576;52.020;5.536;2023-03-09T15:09:41;33.33;;;16.25;;
67776;SDS011;54576;52.020;5.536;2023-03-09T15:12:09;29.35;;;15.05;;
67776;SDS011;54576;52.020;5.536;2023-03-09T15:14:39;23.23;;;12.57;;
67776;SDS011;54576;52.020;5.536;2023-03-09T15:17:06;23.63;;;13.52;;
67776;SDS011;54576;52.020;5.536;2023-03-09T15:19:32;24.75;;;14.30;;
67776;SDS011;54576;52.020;5.536;2023-03-09T15:21:58;25.73;;;12.65;;
67776;SDS011;54576;52.020;5.536;2023-03-09T15:24:24;22.58;;;13.15;;
67776;SDS011;54576;52.020;5.536;2023-03-09T15:26:52;24.17;;;13.25;;
67776;SDS011;54576;52.020;5.536;2023-03-09T15:29:18;21.40;;;12.63;;
67776;SDS011;54576;52.020;5.536;2023-03-09T15:31:44;20.45;;;11.52;;
67776;SDS011;54576;52.020;5.536;2023-03-09T15:34:11;25.00;;;12.70;;
67776;SDS011;54576;52.020;5.536;2023-03-09T15:36:36;18.27;;;11.30;;
67776;SDS011;54576;52.020;5.536;2023-03-09T15:39:02;23.10;;;12.18;;
67776;SDS011;54576;52.020;5.536;2023-03-09T15:41:28;22.08;;;12.32;;
67776;SDS011;54576;52.020;5.536;2023-03-09T15:43:53;18.48;;;11.35;;
67776;SDS011;54576;52.020;5.536;2023-03-09T15:46:19;21.77;;;12.20;;
67776;SDS011;54576;52.020;5.536;2023-03-09T15:48:45;17.50;;;11.02;;
67776;SDS011;54576;52.020;5.536;2023-03-09T15:51:10;16.23;;;10.68;;
67776;SDS011;54576;52.020;5.536;2023-03-09T15:53:38;17.60;;;10.60;;
67776;SDS011;54576;52.020;5.536;2023-03-09T15:56:05;22.77;;;10.82;;
67776;SDS011;54576;52.020;5.536;2023-03-09T15:58:32;20.20;;;10.85;;
67776;SDS011;54576;52.020;5.536;2023-03-09T16:01:01;16.17;;;10.02;;
67776;SDS011;54576;52.020;5.536;2023-03-09T16:03:28;16.42;;;9.48;;
67776;SDS011;54576;52.020;5.536;2023-03-09T16:05:56;19.30;;;10.93;;
67776;SDS011;54576;52.020;5.536;2023-03-09T16:08:22;18.45;;;10.90;;
67776;SDS011;54576;52.020;5.536;2023-03-09T16:10:49;19.27;;;11.05;;
67776;SDS011;54576;52.020;5.536;2023-03-09T16:13:15;18.25;;;11.07;;